Outlook, Washington
Current Conditions -  °F | °C
As of 9:53 AM on Friday 19 Dec 2014 (Local Time) from KYKM Reporting Station
Overcast Overcast  
Wind Chill: 41°   Ceiling: 1100
Heat Index: 41°   Visibility: 8mi
Dew Point: 37°   Wind: 0mph
Humidity: 86%   Direction: NA
Pressure: 29.94"   Gusts: NA
Location:  46.33°N, 120.09°W
Report Text: KYKM 191753Z 00000KT 8SM OVC011 05/03 A2994 RMK AO2 SLP147 T00500028 10050 20028 53018
Loading
Personal Weather Stations






























Interactive Weather Map New forecast layout! Learn more

10-Day Weather Forecast

Advertisements
Track Severe Weather on mobile